sensor_id;sensor_type;location;lat;lon;timestamp;P1;durP1;ratioP1;P2;durP2;ratioP2
23614;SDS011;11985;49.404;7.734;2023-04-06T00:03:02;8.88;;;4.63;;
23614;SDS011;11985;49.404;7.734;2023-04-06T00:08:04;7.60;;;3.63;;
23614;SDS011;11985;49.404;7.734;2023-04-06T00:13:06;6.95;;;3.15;;
23614;SDS011;11985;49.404;7.734;2023-04-06T00:18:09;6.35;;;3.53;;
23614;SDS011;11985;49.404;7.734;2023-04-06T00:23:10;6.80;;;3.70;;
23614;SDS011;11985;49.404;7.734;2023-04-06T00:28:12;8.23;;;3.45;;
23614;SDS011;11985;49.404;7.734;2023-04-06T00:33:15;6.22;;;3.58;;
23614;SDS011;11985;49.404;7.734;2023-04-06T00:38:16;8.85;;;3.63;;
23614;SDS011;11985;49.404;7.734;2023-04-06T00:43:18;5.00;;;3.10;;
23614;SDS011;11985;49.404;7.734;2023-04-06T00:48:21;8.85;;;3.50;;
23614;SDS011;11985;49.404;7.734;2023-04-06T00:53:23;5.28;;;3.10;;
23614;SDS011;11985;49.404;7.734;2023-04-06T00:58:24;6.15;;;3.72;;
23614;SDS011;11985;49.404;7.734;2023-04-06T01:03:27;6.13;;;3.17;;
23614;SDS011;11985;49.404;7.734;2023-04-06T01:08:29;7.72;;;4.05;;
23614;SDS011;11985;49.404;7.734;2023-04-06T01:13:31;5.97;;;3.38;;
23614;SDS011;11985;49.404;7.734;2023-04-06T01:18:34;5.28;;;3.17;;
23614;SDS011;11985;49.404;7.734;2023-04-06T01:23:37;8.25;;;3.60;;
23614;SDS011;11985;49.404;7.734;2023-04-06T01:28:39;5.68;;;3.40;;
23614;SDS011;11985;49.404;7.734;2023-04-06T01:33:41;6.35;;;3.97;;
23614;SDS011;11985;49.404;7.734;2023-04-06T01:38:44;9.82;;;2.90;;
23614;SDS011;11985;49.404;7.734;2023-04-06T01:43:46;7.82;;;3.70;;
23614;SDS011;11985;49.404;7.734;2023-04-06T01:48:48;8.32;;;3.58;;
23614;SDS011;11985;49.404;7.734;2023-04-06T01:53:51;5.90;;;3.55;;
23614;SDS011;11985;49.404;7.734;2023-04-06T01:58:56;8.73;;;3.88;;
23614;SDS011;11985;49.404;7.734;2023-04-06T02:03:57;6.90;;;3.72;;
23614;SDS011;11985;49.404;7.734;2023-04-06T02:09:01;10.23;;;3.90;;
23614;SDS011;11985;49.404;7.734;2023-04-06T02:14:02;8.98;;;3.60;;
23614;SDS011;11985;49.404;7.734;2023-04-06T02:19:04;5.05;;;3.60;;
23614;SDS011;11985;49.404;7.734;2023-04-06T02:24:07;7.47;;;4.15;;
23614;SDS011;11985;49.404;7.734;2023-04-06T02:29:09;7.00;;;3.90;;
23614;SDS011;11985;49.404;7.734;2023-04-06T02:34:11;9.68;;;3.80;;
23614;SDS011;11985;49.404;7.734;2023-04-06T02:39:18;9.80;;;4.30;;
23614;SDS011;11985;49.404;7.734;2023-04-06T02:44:20;6.85;;;3.58;;
23614;SDS011;11985;49.404;7.734;2023-04-06T02:49:22;6.45;;;3.78;;
23614;SDS011;11985;49.404;7.734;2023-04-06T02:54:25;7.78;;;4.00;;
23614;SDS011;11985;49.404;7.734;2023-04-06T02:59:26;8.25;;;4.05;;
23614;SDS011;11985;49.404;7.734;2023-04-06T03:04:28;8.18;;;4.10;;
23614;SDS011;11985;49.404;7.734;2023-04-06T03:09:31;6.60;;;4.03;;
23614;SDS011;11985;49.404;7.734;2023-04-06T03:14:32;8.25;;;4.05;;
23614;SDS011;11985;49.404;7.734;2023-04-06T03:19:34;8.82;;;4.53;;
23614;SDS011;11985;49.404;7.734;2023-04-06T03:24:37;8.48;;;4.40;;
23614;SDS011;11985;49.404;7.734;2023-04-06T03:29:38;6.97;;;3.78;;
23614;SDS011;11985;49.404;7.734;2023-04-06T03:34:40;8.88;;;4.97;;
23614;SDS011;11985;49.404;7.734;2023-04-06T03:39:43;8.57;;;4.28;;
23614;SDS011;11985;49.404;7.734;2023-04-06T03:44:45;9.48;;;3.92;;
23614;SDS011;11985;49.404;7.734;2023-04-06T03:49:46;7.10;;;4.30;;
23614;SDS011;11985;49.404;7.734;2023-04-06T03:54:49;10.88;;;4.25;;
23614;SDS011;11985;49.404;7.734;2023-04-06T03:59:51;8.90;;;4.05;;
23614;SDS011;11985;49.404;7.734;2023-04-06T04:04:52;12.38;;;3.92;;
23614;SDS011;11985;49.404;7.734;2023-04-06T04:09:55;9.15;;;4.18;;
23614;SDS011;11985;49.404;7.734;2023-04-06T04:14:57;9.90;;;4.60;;
23614;SDS011;11985;49.404;7.734;2023-04-06T04:19:58;10.90;;;4.15;;
23614;SDS011;11985;49.404;7.734;2023-04-06T04:25:01;9.48;;;3.72;;
23614;SDS011;11985;49.404;7.734;2023-04-06T04:30:03;6.22;;;3.55;;
23614;SDS011;11985;49.404;7.734;2023-04-06T04:35:06;6.35;;;4.03;;
23614;SDS011;11985;49.404;7.734;2023-04-06T04:40:11;7.55;;;3.90;;
23614;SDS011;11985;49.404;7.734;2023-04-06T04:45:12;8.02;;;3.95;;
23614;SDS011;11985;49.404;7.734;2023-04-06T04:50:14;5.88;;;3.47;;
23614;SDS011;11985;49.404;7.734;2023-04-06T04:55:17;9.90;;;3.67;;
23614;SDS011;11985;49.404;7.734;2023-04-06T05:00:19;6.28;;;3.45;;
23614;SDS011;11985;49.404;7.734;2023-04-06T05:05:21;7.00;;;3.42;;
23614;SDS011;11985;49.404;7.734;2023-04-06T05:10:24;7.68;;;3.70;;
23614;SDS011;11985;49.404;7.734;2023-04-06T05:15:25;5.97;;;3.47;;
23614;SDS011;11985;49.404;7.734;2023-04-06T05:20:27;7.20;;;4.00;;
23614;SDS011;11985;49.404;7.734;2023-04-06T05:25:30;7.10;;;3.88;;
23614;SDS011;11985;49.404;7.734;2023-04-06T05:30:32;4.83;;;2.93;;
23614;SDS011;11985;49.404;7.734;2023-04-06T05:35:35;5.10;;;3.35;;
23614;SDS011;11985;49.404;7.734;2023-04-06T05:40:41;11.25;;;3.92;;
23614;SDS011;11985;49.404;7.734;2023-04-06T05:45:43;8.50;;;3.90;;
23614;SDS011;11985;49.404;7.734;2023-04-06T05:50:47;7.05;;;4.05;;
23614;SDS011;11985;49.404;7.734;2023-04-06T05:55:51;11.55;;;4.38;;
23614;SDS011;11985;49.404;7.734;2023-04-06T06:00:56;9.13;;;4.30;;
23614;SDS011;11985;49.404;7.734;2023-04-06T06:06:01;12.00;;;5.13;;
23614;SDS011;11985;49.404;7.734;2023-04-06T06:11:04;7.70;;;4.47;;
23614;SDS011;11985;49.404;7.734;2023-04-06T06:16:06;10.32;;;4.82;;
23614;SDS011;11985;49.404;7.734;2023-04-06T06:21:08;11.40;;;4.95;;
23614;SDS011;11985;49.404;7.734;2023-04-06T06:26:12;9.45;;;4.97;;
23614;SDS011;11985;49.404;7.734;2023-04-06T06:31:14;10.18;;;4.78;;
23614;SDS011;11985;49.404;7.734;2023-04-06T06:39:53;8.75;;;4.68;;
23614;SDS011;11985;49.404;7.734;2023-04-06T06:44:54;9.45;;;4.75;;
23614;SDS011;11985;49.404;7.734;2023-04-06T06:49:56;10.50;;;5.10;;
23614;SDS011;11985;49.404;7.734;2023-04-06T06:54:59;8.50;;;4.35;;
23614;SDS011;11985;49.404;7.734;2023-04-06T07:00:00;8.85;;;4.95;;
23614;SDS011;11985;49.404;7.734;2023-04-06T07:05:04;7.95;;;4.30;;
23614;SDS011;11985;49.404;7.734;2023-04-06T07:10:08;10.77;;;4.45;;
23614;SDS011;11985;49.404;7.734;2023-04-06T07:20:12;9.32;;;4.68;;
23614;SDS011;11985;49.404;7.734;2023-04-06T07:25:16;8.45;;;4.43;;
23614;SDS011;11985;49.404;7.734;2023-04-06T07:30:18;11.55;;;5.35;;
23614;SDS011;11985;49.404;7.734;2023-04-06T07:35:28;8.05;;;4.85;;
23614;SDS011;11985;49.404;7.734;2023-04-06T07:40:32;11.80;;;4.88;;
23614;SDS011;11985;49.404;7.734;2023-04-06T07:45:34;12.25;;;5.55;;
23614;SDS011;11985;49.404;7.734;2023-04-06T07:50:36;9.52;;;5.45;;
23614;SDS011;11985;49.404;7.734;2023-04-06T07:55:39;10.60;;;5.72;;
23614;SDS011;11985;49.404;7.734;2023-04-06T08:00:40;10.27;;;5.45;;
23614;SDS011;11985;49.404;7.734;2023-04-06T08:05:42;13.02;;;5.45;;
23614;SDS011;11985;49.404;7.734;2023-04-06T08:10:45;11.25;;;5.75;;
23614;SDS011;11985;49.404;7.734;2023-04-06T08:15:47;9.40;;;5.47;;
23614;SDS011;11985;49.404;7.734;2023-04-06T08:20:49;12.70;;;5.20;;
23614;SDS011;11985;49.404;7.734;2023-04-06T08:25:52;10.15;;;5.70;;
23614;SDS011;11985;49.404;7.734;2023-04-06T08:30:54;11.60;;;5.75;;
23614;SDS011;11985;49.404;7.734;2023-04-06T08:35:55;13.75;;;5.90;;
23614;SDS011;11985;49.404;7.734;2023-04-06T08:40:59;13.68;;;6.18;;
23614;SDS011;11985;49.404;7.734;2023-04-06T08:46:00;13.05;;;5.93;;
23614;SDS011;11985;49.404;7.734;2023-04-06T08:51:02;18.88;;;8.48;;
23614;SDS011;11985;49.404;7.734;2023-04-06T08:56:06;13.65;;;5.47;;
23614;SDS011;11985;49.404;7.734;2023-04-06T09:01:11;11.57;;;6.22;;
23614;SDS011;11985;49.404;7.734;2023-04-06T09:06:15;14.85;;;7.10;;
23614;SDS011;11985;49.404;7.734;2023-04-06T09:11:18;19.33;;;6.78;;
23614;SDS011;11985;49.404;7.734;2023-04-06T09:16:20;12.52;;;6.32;;
23614;SDS011;11985;49.404;7.734;2023-04-06T09:21:22;13.60;;;6.43;;
23614;SDS011;11985;49.404;7.734;2023-04-06T09:26:27;16.75;;;6.75;;
23614;SDS011;11985;49.404;7.734;2023-04-06T09:31:29;14.95;;;7.22;;
23614;SDS011;11985;49.404;7.734;2023-04-06T09:36:33;13.47;;;6.87;;
23614;SDS011;11985;49.404;7.734;2023-04-06T09:41:39;13.80;;;6.50;;
23614;SDS011;11985;49.404;7.734;2023-04-06T09:46:41;17.67;;;7.47;;
23614;SDS011;11985;49.404;7.734;2023-04-06T09:51:45;13.27;;;7.53;;
23614;SDS011;11985;49.404;7.734;2023-04-06T09:56:50;12.63;;;6.93;;
23614;SDS011;11985;49.404;7.734;2023-04-06T10:01:56;14.98;;;6.22;;
23614;SDS011;11985;49.404;7.734;2023-04-06T10:07:00;13.43;;;7.53;;
23614;SDS011;11985;49.404;7.734;2023-04-06T10:12:05;11.47;;;7.13;;
23614;SDS011;11985;49.404;7.734;2023-04-06T10:17:07;12.63;;;6.70;;
23614;SDS011;11985;49.404;7.734;2023-04-06T10:22:12;10.75;;;6.43;;
23614;SDS011;11985;49.404;7.734;2023-04-06T10:27:28;16.17;;;7.30;;
23614;SDS011;11985;49.404;7.734;2023-04-06T10:32:36;11.18;;;6.57;;
23614;SDS011;11985;49.404;7.734;2023-04-06T10:37:46;10.75;;;6.30;;
23614;SDS011;11985;49.404;7.734;2023-04-06T10:42:50;11.68;;;6.00;;
23614;SDS011;11985;49.404;7.734;2023-04-06T10:47:52;12.50;;;6.30;;
23614;SDS011;11985;49.404;7.734;2023-04-06T10:53:01;13.38;;;6.22;;
23614;SDS011;11985;49.404;7.734;2023-04-06T10:58:07;16.35;;;6.47;;
23614;SDS011;11985;49.404;7.734;2023-04-06T11:03:08;10.90;;;6.90;;
23614;SDS011;11985;49.404;7.734;2023-04-06T11:08:10;14.25;;;6.60;;
23614;SDS011;11985;49.404;7.734;2023-04-06T11:13:13;11.32;;;6.00;;
23614;SDS011;11985;49.404;7.734;2023-04-06T11:18:17;11.10;;;6.07;;
23614;SDS011;11985;49.404;7.734;2023-04-06T11:23:22;11.15;;;5.57;;
23614;SDS011;11985;49.404;7.734;2023-04-06T11:28:26;7.72;;;4.95;;
23614;SDS011;11985;49.404;7.734;2023-04-06T11:33:28;9.13;;;5.93;;
23614;SDS011;11985;49.404;7.734;2023-04-06T11:38:30;11.25;;;5.65;;
23614;SDS011;11985;49.404;7.734;2023-04-06T11:43:33;11.18;;;5.70;;
23614;SDS011;11985;49.404;7.734;2023-04-06T11:48:43;11.88;;;5.70;;
23614;SDS011;11985;49.404;7.734;2023-04-06T11:53:46;10.15;;;5.72;;
23614;SDS011;11985;49.404;7.734;2023-04-06T11:58:49;12.52;;;6.38;;
23614;SDS011;11985;49.404;7.734;2023-04-06T12:03:51;10.35;;;5.75;;
23614;SDS011;11985;49.404;7.734;2023-04-06T12:08:53;13.25;;;6.05;;
23614;SDS011;11985;49.404;7.734;2023-04-06T12:13:56;11.30;;;6.20;;
23614;SDS011;11985;49.404;7.734;2023-04-06T12:18:59;12.43;;;6.17;;
23614;SDS011;11985;49.404;7.734;2023-04-06T12:24:01;16.55;;;6.82;;
23614;SDS011;11985;49.404;7.734;2023-04-06T12:29:04;15.60;;;6.95;;
23614;SDS011;11985;49.404;7.734;2023-04-06T12:34:08;15.40;;;6.60;;
23614;SDS011;11985;49.404;7.734;2023-04-06T12:39:09;12.25;;;6.60;;
23614;SDS011;11985;49.404;7.734;2023-04-06T12:44:12;10.48;;;6.05;;
23614;SDS011;11985;49.404;7.734;2023-04-06T12:49:14;16.08;;;6.03;;
23614;SDS011;11985;49.404;7.734;2023-04-06T12:54:18;13.63;;;7.18;;
23614;SDS011;11985;49.404;7.734;2023-04-06T12:59:21;9.43;;;5.97;;
23614;SDS011;11985;49.404;7.734;2023-04-06T13:04:25;12.38;;;6.40;;
23614;SDS011;11985;49.404;7.734;2023-04-06T13:09:26;14.85;;;6.95;;
23614;SDS011;11985;49.404;7.734;2023-04-06T13:14:29;10.25;;;5.70;;
23614;SDS011;11985;49.404;7.734;2023-04-06T13:19:32;16.67;;;6.15;;
23614;SDS011;11985;49.404;7.734;2023-04-06T13:24:33;10.77;;;6.38;;
23614;SDS011;11985;49.404;7.734;2023-04-06T13:29:36;11.48;;;5.72;;
23614;SDS011;11985;49.404;7.734;2023-04-06T13:34:38;12.43;;;6.38;;
23614;SDS011;11985;49.404;7.734;2023-04-06T13:39:40;11.90;;;6.60;;
23614;SDS011;11985;49.404;7.734;2023-04-06T13:44:43;12.15;;;6.72;;
23614;SDS011;11985;49.404;7.734;2023-04-06T13:49:46;14.93;;;6.03;;
23614;SDS011;11985;49.404;7.734;2023-04-06T13:54:48;14.77;;;8.80;;
23614;SDS011;11985;49.404;7.734;2023-04-06T13:59:52;10.70;;;5.80;;
23614;SDS011;11985;49.404;7.734;2023-04-06T14:04:54;15.57;;;5.82;;
23614;SDS011;11985;49.404;7.734;2023-04-06T14:09:55;10.05;;;5.50;;
23614;SDS011;11985;49.404;7.734;2023-04-06T14:14:58;8.85;;;4.90;;
23614;SDS011;11985;49.404;7.734;2023-04-06T14:20:00;9.48;;;5.22;;
23614;SDS011;11985;49.404;7.734;2023-04-06T14:25:02;14.98;;;5.85;;
23614;SDS011;11985;49.404;7.734;2023-04-06T14:30:06;11.15;;;5.80;;
23614;SDS011;11985;49.404;7.734;2023-04-06T14:35:08;12.35;;;5.63;;
23614;SDS011;11985;49.404;7.734;2023-04-06T14:40:11;12.05;;;5.10;;
23614;SDS011;11985;49.404;7.734;2023-04-06T14:45:14;6.97;;;4.55;;
23614;SDS011;11985;49.404;7.734;2023-04-06T14:50:17;11.47;;;4.10;;
23614;SDS011;11985;49.404;7.734;2023-04-06T14:55:18;7.53;;;4.13;;
23614;SDS011;11985;49.404;7.734;2023-04-06T15:00:21;7.53;;;4.32;;
23614;SDS011;11985;49.404;7.734;2023-04-06T15:05:23;7.45;;;4.82;;
23614;SDS011;11985;49.404;7.734;2023-04-06T15:10:25;11.05;;;4.40;;
23614;SDS011;11985;49.404;7.734;2023-04-06T15:15:28;7.22;;;4.70;;
23614;SDS011;11985;49.404;7.734;2023-04-06T15:20:30;8.23;;;4.78;;
23614;SDS011;11985;49.404;7.734;2023-04-06T15:25:31;7.25;;;4.03;;
23614;SDS011;11985;49.404;7.734;2023-04-06T15:30:34;5.40;;;3.25;;
23614;SDS011;11985;49.404;7.734;2023-04-06T15:35:36;7.07;;;3.60;;
23614;SDS011;11985;49.404;7.734;2023-04-06T15:40:41;7.13;;;4.15;;
23614;SDS011;11985;49.404;7.734;2023-04-06T15:50:47;6.55;;;3.45;;
23614;SDS011;11985;49.404;7.734;2023-04-06T15:55:48;7.30;;;3.53;;
23614;SDS011;11985;49.404;7.734;2023-04-06T16:00:51;13.63;;;4.65;;
23614;SDS011;11985;49.404;7.734;2023-04-06T16:05:53;7.57;;;4.32;;
23614;SDS011;11985;49.404;7.734;2023-04-06T16:10:54;8.02;;;4.47;;
23614;SDS011;11985;49.404;7.734;2023-04-06T16:15:57;6.75;;;4.22;;
23614;SDS011;11985;49.404;7.734;2023-04-06T16:20:59;8.48;;;5.35;;
23614;SDS011;11985;49.404;7.734;2023-04-06T16:26:00;10.80;;;5.80;;
23614;SDS011;11985;49.404;7.734;2023-04-06T16:31:03;9.40;;;4.35;;
23614;SDS011;11985;49.404;7.734;2023-04-06T16:36:06;11.23;;;4.50;;
23614;SDS011;11985;49.404;7.734;2023-04-06T16:41:07;7.55;;;4.75;;
23614;SDS011;11985;49.404;7.734;2023-04-06T16:46:10;9.52;;;4.50;;
23614;SDS011;11985;49.404;7.734;2023-04-06T16:51:12;7.45;;;4.55;;
23614;SDS011;11985;49.404;7.734;2023-04-06T16:56:13;8.68;;;5.35;;
23614;SDS011;11985;49.404;7.734;2023-04-06T17:01:20;7.03;;;4.82;;
23614;SDS011;11985;49.404;7.734;2023-04-06T17:06:22;8.40;;;4.95;;
23614;SDS011;11985;49.404;7.734;2023-04-06T17:11:24;10.93;;;4.93;;
23614;SDS011;11985;49.404;7.734;2023-04-06T17:16:27;8.82;;;5.38;;
23614;SDS011;11985;49.404;7.734;2023-04-06T17:21:28;9.57;;;5.55;;
23614;SDS011;11985;49.404;7.734;2023-04-06T17:26:30;10.80;;;5.35;;
23614;SDS011;11985;49.404;7.734;2023-04-06T17:31:33;8.93;;;5.07;;
23614;SDS011;11985;49.404;7.734;2023-04-06T17:36:34;7.85;;;5.40;;
23614;SDS011;11985;49.404;7.734;2023-04-06T17:41:37;8.27;;;5.55;;
23614;SDS011;11985;49.404;7.734;2023-04-06T17:46:40;8.82;;;5.80;;
23614;SDS011;11985;49.404;7.734;2023-04-06T17:51:41;8.43;;;5.45;;
23614;SDS011;11985;49.404;7.734;2023-04-06T17:56:44;7.68;;;5.47;;
23614;SDS011;11985;49.404;7.734;2023-04-06T18:01:49;8.55;;;5.53;;
23614;SDS011;11985;49.404;7.734;2023-04-06T18:06:50;9.05;;;5.75;;
23614;SDS011;11985;49.404;7.734;2023-04-06T18:11:52;14.50;;;6.32;;
23614;SDS011;11985;49.404;7.734;2023-04-06T18:16:55;6.97;;;5.45;;
23614;SDS011;11985;49.404;7.734;2023-04-06T18:21:57;7.97;;;5.80;;
23614;SDS011;11985;49.404;7.734;2023-04-06T18:26:59;7.90;;;5.10;;
23614;SDS011;11985;49.404;7.734;2023-04-06T18:32:02;7.78;;;5.07;;
23614;SDS011;11985;49.404;7.734;2023-04-06T18:37:03;7.72;;;5.10;;
23614;SDS011;11985;49.404;7.734;2023-04-06T18:42:05;7.90;;;4.60;;
23614;SDS011;11985;49.404;7.734;2023-04-06T18:47:08;10.57;;;4.90;;
23614;SDS011;11985;49.404;7.734;2023-04-06T18:52:09;8.85;;;4.97;;
23614;SDS011;11985;49.404;7.734;2023-04-06T18:57:11;8.55;;;5.32;;
23614;SDS011;11985;49.404;7.734;2023-04-06T19:02:14;8.38;;;4.75;;
23614;SDS011;11985;49.404;7.734;2023-04-06T19:07:15;11.80;;;4.95;;
23614;SDS011;11985;49.404;7.734;2023-04-06T19:12:16;8.15;;;4.95;;
23614;SDS011;11985;49.404;7.734;2023-04-06T19:17:20;8.65;;;4.97;;
23614;SDS011;11985;49.404;7.734;2023-04-06T19:22:21;6.43;;;4.80;;
23614;SDS011;11985;49.404;7.734;2023-04-06T19:27:23;8.48;;;5.07;;
23614;SDS011;11985;49.404;7.734;2023-04-06T19:32:28;8.20;;;5.10;;
23614;SDS011;11985;49.404;7.734;2023-04-06T19:37:30;13.68;;;5.43;;
23614;SDS011;11985;49.404;7.734;2023-04-06T19:42:31;6.18;;;4.75;;
23614;SDS011;11985;49.404;7.734;2023-04-06T19:47:34;9.07;;;5.07;;
23614;SDS011;11985;49.404;7.734;2023-04-06T19:52:36;9.45;;;6.05;;
23614;SDS011;11985;49.404;7.734;2023-04-06T19:57:37;8.43;;;5.65;;
23614;SDS011;11985;49.404;7.734;2023-04-06T20:02:41;10.38;;;5.70;;
23614;SDS011;11985;49.404;7.734;2023-04-06T20:07:43;8.68;;;5.20;;
23614;SDS011;11985;49.404;7.734;2023-04-06T20:12:46;7.88;;;5.40;;
23614;SDS011;11985;49.404;7.734;2023-04-06T20:17:50;11.00;;;5.57;;
23614;SDS011;11985;49.404;7.734;2023-04-06T20:22:52;7.80;;;5.03;;
23614;SDS011;11985;49.404;7.734;2023-04-06T20:27:53;10.57;;;5.63;;
23614;SDS011;11985;49.404;7.734;2023-04-06T20:32:56;7.20;;;5.22;;
23614;SDS011;11985;49.404;7.734;2023-04-06T20:37:58;9.02;;;4.85;;
23614;SDS011;11985;49.404;7.734;2023-04-06T20:43:00;8.82;;;5.53;;
23614;SDS011;11985;49.404;7.734;2023-04-06T20:48:03;9.65;;;5.38;;
23614;SDS011;11985;49.404;7.734;2023-04-06T20:53:05;6.78;;;4.75;;
23614;SDS011;11985;49.404;7.734;2023-04-06T20:58:06;6.75;;;4.82;;
23614;SDS011;11985;49.404;7.734;2023-04-06T21:03:09;8.18;;;5.10;;
23614;SDS011;11985;49.404;7.734;2023-04-06T21:08:11;7.95;;;4.68;;
23614;SDS011;11985;49.404;7.734;2023-04-06T21:13:12;8.85;;;5.35;;
23614;SDS011;11985;49.404;7.734;2023-04-06T21:18:15;8.40;;;5.22;;
23614;SDS011;11985;49.404;7.734;2023-04-06T21:23:17;11.55;;;5.38;;
23614;SDS011;11985;49.404;7.734;2023-04-06T21:28:19;8.55;;;5.18;;
23614;SDS011;11985;49.404;7.734;2023-04-06T21:33:21;10.00;;;5.35;;
23614;SDS011;11985;49.404;7.734;2023-04-06T21:38:23;7.53;;;5.32;;
23614;SDS011;11985;49.404;7.734;2023-04-06T21:43:25;7.65;;;5.03;;
23614;SDS011;11985;49.404;7.734;2023-04-06T21:48:28;8.45;;;4.93;;
23614;SDS011;11985;49.404;7.734;2023-04-06T21:53:29;8.27;;;5.13;;
23614;SDS011;11985;49.404;7.734;2023-04-06T21:58:31;10.75;;;4.78;;
23614;SDS011;11985;49.404;7.734;2023-04-06T22:03:34;9.27;;;5.22;;
23614;SDS011;11985;49.404;7.734;2023-04-06T22:08:35;11.85;;;5.10;;
23614;SDS011;11985;49.404;7.734;2023-04-06T22:13:37;7.53;;;5.22;;
23614;SDS011;11985;49.404;7.734;2023-04-06T22:18:40;7.47;;;5.32;;
23614;SDS011;11985;49.404;7.734;2023-04-06T22:23:42;9.23;;;5.20;;
23614;SDS011;11985;49.404;7.734;2023-04-06T22:28:43;9.20;;;5.20;;
23614;SDS011;11985;49.404;7.734;2023-04-06T22:33:46;8.85;;;5.18;;
23614;SDS011;11985;49.404;7.734;2023-04-06T22:38:48;7.18;;;4.95;;
23614;SDS011;11985;49.404;7.734;2023-04-06T22:43:49;8.10;;;5.47;;
23614;SDS011;11985;49.404;7.734;2023-04-06T22:48:52;8.35;;;5.63;;
23614;SDS011;11985;49.404;7.734;2023-04-06T22:53:54;8.70;;;5.47;;
23614;SDS011;11985;49.404;7.734;2023-04-06T22:58:55;8.90;;;5.75;;
23614;SDS011;11985;49.404;7.734;2023-04-06T23:03:58;8.60;;;5.72;;
23614;SDS011;11985;49.404;7.734;2023-04-06T23:09:00;10.07;;;6.10;;
23614;SDS011;11985;49.404;7.734;2023-04-06T23:14:01;9.48;;;6.10;;
23614;SDS011;11985;49.404;7.734;2023-04-06T23:19:04;8.65;;;6.00;;
23614;SDS011;11985;49.404;7.734;2023-04-06T23:24:05;12.25;;;6.70;;
23614;SDS011;11985;49.404;7.734;2023-04-06T23:29:07;11.98;;;6.28;;
23614;SDS011;11985;49.404;7.734;2023-04-06T23:34:10;10.40;;;6.28;;
23614;SDS011;11985;49.404;7.734;2023-04-06T23:39:11;15.38;;;6.50;;
23614;SDS011;11985;49.404;7.734;2023-04-06T23:44:13;9.07;;;6.75;;
23614;SDS011;11985;49.404;7.734;2023-04-06T23:49:16;13.95;;;7.10;;
23614;SDS011;11985;49.404;7.734;2023-04-06T23:54:18;13.73;;;6.95;;
23614;SDS011;11985;49.404;7.734;2023-04-06T23:59:19;10.90;;;6.72;;
